sensor_id;sensor_type;location;lat;lon;timestamp;pressure;altitude;pressure_sealevel;temperature;humidity
41898;BME280;27576;53.366;-1.498;2022-11-10T00:00:16;99616.41;;;9.28;100.00
41898;BME280;27576;53.366;-1.498;2022-11-10T00:02:42;99612.13;;;9.32;100.00
41898;BME280;27576;53.366;-1.498;2022-11-10T00:05:12;99630.22;;;9.33;100.00
41898;BME280;27576;53.366;-1.498;2022-11-10T00:07:38;99614.69;;;9.35;100.00
41898;BME280;27576;53.366;-1.498;2022-11-10T00:10:04;99628.53;;;9.36;100.00
41898;BME280;27576;53.366;-1.498;2022-11-10T00:12:30;99606.88;;;9.23;100.00
41898;BME280;27576;53.366;-1.498;2022-11-10T00:14:56;99614.75;;;9.43;100.00
41898;BME280;27576;53.366;-1.498;2022-11-10T00:17:40;99621.66;;;9.44;100.00
41898;BME280;27576;53.366;-1.498;2022-11-10T00:20:06;99626.84;;;9.47;100.00
41898;BME280;27576;53.366;-1.498;2022-11-10T00:22:33;99619.09;;;9.48;100.00
41898;BME280;27576;53.366;-1.498;2022-11-10T00:24:59;99601.84;;;9.44;100.00
41898;BME280;27576;53.366;-1.498;2022-11-10T00:27:24;99623.41;;;9.54;100.00
41898;BME280;27576;53.366;-1.498;2022-11-10T00:29:49;99564.63;;;9.15;100.00
41898;BME280;27576;53.366;-1.498;2022-11-10T00:32:15;99619.06;;;9.45;100.00
41898;BME280;27576;53.366;-1.498;2022-11-10T00:34:40;99615.63;;;9.46;100.00
41898;BME280;27576;53.366;-1.498;2022-11-10T00:37:05;99634.66;;;9.56;100.00
41898;BME280;27576;53.366;-1.498;2022-11-10T00:39:31;99626.00;;;9.52;100.00
41898;BME280;27576;53.366;-1.498;2022-11-10T00:41:56;99600.94;;;9.38;100.00
41898;BME280;27576;53.366;-1.498;2022-11-10T00:44:22;99632.03;;;9.53;100.00
41898;BME280;27576;53.366;-1.498;2022-11-10T00:46:47;99641.53;;;9.57;100.00
41898;BME280;27576;53.366;-1.498;2022-11-10T00:49:12;99642.38;;;9.50;100.00
41898;BME280;27576;53.366;-1.498;2022-11-10T00:51:38;99667.44;;;9.65;100.00
41898;BME280;27576;53.366;-1.498;2022-11-10T00:54:03;99623.41;;;9.43;100.00
41898;BME280;27576;53.366;-1.498;2022-11-10T00:56:29;99657.06;;;9.62;100.00
41898;BME280;27576;53.366;-1.498;2022-11-10T00:58:54;99652.72;;;9.54;100.00
41898;BME280;27576;53.366;-1.498;2022-11-10T01:01:21;99632.03;;;9.54;100.00
41898;BME280;27576;53.366;-1.498;2022-11-10T01:03:51;99650.16;;;9.57;100.00
41898;BME280;27576;53.366;-1.498;2022-11-10T01:06:18;99675.25;;;9.71;100.00
41898;BME280;27576;53.366;-1.498;2022-11-10T01:08:43;99673.47;;;9.62;100.00
41898;BME280;27576;53.366;-1.498;2022-11-10T01:11:14;99692.50;;;9.73;100.00
41898;BME280;27576;53.366;-1.498;2022-11-10T01:13:40;99688.16;;;9.68;100.00
41898;BME280;27576;53.366;-1.498;2022-11-10T01:16:09;99719.28;;;9.83;100.00
41898;BME280;27576;53.366;-1.498;2022-11-10T01:18:34;99701.97;;;9.73;100.00
41898;BME280;27576;53.366;-1.498;2022-11-10T01:21:00;99698.59;;;9.84;100.00
41898;BME280;27576;53.366;-1.498;2022-11-10T01:23:26;99685.63;;;9.80;100.00
41898;BME280;27576;53.366;-1.498;2022-11-10T01:25:56;99702.88;;;9.86;100.00
41898;BME280;27576;53.366;-1.498;2022-11-10T01:28:21;99698.59;;;9.84;100.00
41898;BME280;27576;53.366;-1.498;2022-11-10T01:30:46;99652.78;;;9.59;100.00
41898;BME280;27576;53.366;-1.498;2022-11-10T01:33:12;99705.53;;;9.92;100.00
41898;BME280;27576;53.366;-1.498;2022-11-10T01:35:37;99700.34;;;9.92;100.00
41898;BME280;27576;53.366;-1.498;2022-11-10T01:38:02;99702.94;;;9.92;100.00
41898;BME280;27576;53.366;-1.498;2022-11-10T01:40:28;99621.63;;;9.39;100.00
41898;BME280;27576;53.366;-1.498;2022-11-10T01:42:55;99682.19;;;9.79;100.00
41898;BME280;27576;53.366;-1.498;2022-11-10T01:47:48;99677.88;;;9.81;100.00
41898;BME280;27576;53.366;-1.498;2022-11-10T01:50:14;99689.97;;;9.84;100.00
41898;BME280;27576;53.366;-1.498;2022-11-10T01:52:42;99693.41;;;9.89;100.00
41898;BME280;27576;53.366;-1.498;2022-11-10T01:55:09;99667.50;;;9.78;100.00
41898;BME280;27576;53.366;-1.498;2022-11-10T01:57:35;99691.72;;;9.87;100.00
41898;BME280;27576;53.366;-1.498;2022-11-10T02:00:03;99690.84;;;9.92;100.00
41898;BME280;27576;53.366;-1.498;2022-11-10T02:02:35;99695.16;;;9.93;100.00
41898;BME280;27576;53.366;-1.498;2022-11-10T02:05:03;99693.41;;;9.86;100.00
41898;BME280;27576;53.366;-1.498;2022-11-10T02:07:30;99691.69;;;9.85;100.00
41898;BME280;27576;53.366;-1.498;2022-11-10T02:09:56;99686.50;;;9.79;100.00
41898;BME280;27576;53.366;-1.498;2022-11-10T02:12:21;99696.00;;;9.83;100.00
41898;BME280;27576;53.366;-1.498;2022-11-10T02:15:12;99683.88;;;9.77;100.00
41898;BME280;27576;53.366;-1.498;2022-11-10T02:17:38;99709.81;;;9.93;100.00
41898;BME280;27576;53.366;-1.498;2022-11-10T02:20:07;99701.19;;;9.94;100.00
41898;BME280;27576;53.366;-1.498;2022-11-10T02:22:35;99672.69;;;9.75;100.00
41898;BME280;27576;53.366;-1.498;2022-11-10T02:25:00;99696.88;;;9.93;100.00
41898;BME280;27576;53.366;-1.498;2022-11-10T02:27:26;99683.94;;;9.93;100.00
41898;BME280;27576;53.366;-1.498;2022-11-10T02:29:52;99684.81;;;9.92;100.00
41898;BME280;27576;53.366;-1.498;2022-11-10T02:32:17;99685.63;;;9.81;100.00
41898;BME280;27576;53.366;-1.498;2022-11-10T02:34:43;99667.50;;;9.78;100.00
41898;BME280;27576;53.366;-1.498;2022-11-10T02:37:08;99658.00;;;9.77;100.00
41898;BME280;27576;53.366;-1.498;2022-11-10T02:39:35;99645.94;;;9.72;100.00
41898;BME280;27576;53.366;-1.498;2022-11-10T02:42:00;99664.03;;;9.78;100.00
41898;BME280;27576;53.366;-1.498;2022-11-10T02:44:26;99670.09;;;9.80;100.00
41898;BME280;27576;53.366;-1.498;2022-11-10T02:46:51;99676.13;;;9.82;100.00
41898;BME280;27576;53.366;-1.498;2022-11-10T02:49:17;99701.19;;;9.92;100.00
41898;BME280;27576;53.366;-1.498;2022-11-10T02:51:42;99703.78;;;9.92;100.00
41898;BME280;27576;53.366;-1.498;2022-11-10T02:54:07;99701.16;;;9.84;100.00
41898;BME280;27576;53.366;-1.498;2022-11-10T02:56:33;99677.84;;;9.72;100.00
41898;BME280;27576;53.366;-1.498;2022-11-10T02:58:59;99683.00;;;9.72;100.00
41898;BME280;27576;53.366;-1.498;2022-11-10T03:01:25;99694.22;;;9.74;100.00
41898;BME280;27576;53.366;-1.498;2022-11-10T03:03:50;99708.91;;;9.81;100.00
41898;BME280;27576;53.366;-1.498;2022-11-10T03:06:16;99723.56;;;9.81;100.00
41898;BME280;27576;53.366;-1.498;2022-11-10T03:08:41;99731.38;;;9.82;100.00
41898;BME280;27576;53.366;-1.498;2022-11-10T03:11:06;99730.50;;;9.85;100.00
41898;BME280;27576;53.366;-1.498;2022-11-10T03:13:32;99709.75;;;9.73;100.00
41898;BME280;27576;53.366;-1.498;2022-11-10T03:15:57;99723.56;;;9.75;100.00
41898;BME280;27576;53.366;-1.498;2022-11-10T03:18:22;99739.13;;;9.82;100.00
41898;BME280;27576;53.366;-1.498;2022-11-10T03:20:49;99701.97;;;9.71;100.00
41898;BME280;27576;53.366;-1.498;2022-11-10T03:23:16;99725.34;;;9.87;100.00
41898;BME280;27576;53.366;-1.498;2022-11-10T03:25:42;99681.25;;;9.65;100.00
41898;BME280;27576;53.366;-1.498;2022-11-10T03:28:08;99725.31;;;9.80;100.00
41898;BME280;27576;53.366;-1.498;2022-11-10T03:30:34;99701.94;;;9.67;100.00
41898;BME280;27576;53.366;-1.498;2022-11-10T03:32:59;99695.88;;;9.62;100.00
41898;BME280;27576;53.366;-1.498;2022-11-10T03:35:25;99728.72;;;9.78;100.00
41898;BME280;27576;53.366;-1.498;2022-11-10T03:37:50;99733.94;;;9.82;100.00
41898;BME280;27576;53.366;-1.498;2022-11-10T03:40:15;99733.09;;;9.83;100.00
41898;BME280;27576;53.366;-1.498;2022-11-10T03:42:42;99725.34;;;9.87;100.00
41898;BME280;27576;53.366;-1.498;2022-11-10T03:45:09;99690.72;;;9.66;100.00
41898;BME280;27576;53.366;-1.498;2022-11-10T03:47:35;99695.94;;;9.71;100.00
41898;BME280;27576;53.366;-1.498;2022-11-10T03:50:00;99697.63;;;9.70;100.00
41898;BME280;27576;53.366;-1.498;2022-11-10T03:52:25;99705.44;;;9.75;100.00
41898;BME280;27576;53.366;-1.498;2022-11-10T03:54:51;99690.75;;;9.72;100.00
41898;BME280;27576;53.366;-1.498;2022-11-10T03:57:16;99689.03;;;9.70;100.00
41898;BME280;27576;53.366;-1.498;2022-11-10T03:59:41;99723.63;;;9.92;100.00
41898;BME280;27576;53.366;-1.498;2022-11-10T04:02:07;99705.44;;;9.76;100.00
41898;BME280;27576;53.366;-1.498;2022-11-10T04:04:32;99690.78;;;9.75;100.00
41898;BME280;27576;53.366;-1.498;2022-11-10T04:07:16;99691.59;;;9.70;100.00
41898;BME280;27576;53.366;-1.498;2022-11-10T04:10:00;99723.63;;;9.92;100.00
41898;BME280;27576;53.366;-1.498;2022-11-10T04:12:26;99700.25;;;9.73;100.00
41898;BME280;27576;53.366;-1.498;2022-11-10T04:15:10;99705.47;;;9.86;100.00
41898;BME280;27576;53.366;-1.498;2022-11-10T04:17:54;99715.03;;;9.94;100.00
41898;BME280;27576;53.366;-1.498;2022-11-10T04:20:40;99708.09;;;9.90;100.00
41898;BME280;27576;53.366;-1.498;2022-11-10T04:23:05;99712.44;;;9.94;100.00
41898;BME280;27576;53.366;-1.498;2022-11-10T04:25:49;99709.88;;;10.03;100.00
41898;BME280;27576;53.366;-1.498;2022-11-10T04:28:33;99696.91;;;9.96;100.00
41898;BME280;27576;53.366;-1.498;2022-11-10T04:30:58;99709.06;;;10.11;100.00
41898;BME280;27576;53.366;-1.498;2022-11-10T04:33:24;99690.88;;;10.06;100.00
41898;BME280;27576;53.366;-1.498;2022-11-10T04:35:49;99671.91;;;10.04;100.00
41898;BME280;27576;53.366;-1.498;2022-11-10T04:38:14;99690.06;;;10.21;100.00
41898;BME280;27576;53.366;-1.498;2022-11-10T04:40:40;99691.78;;;10.17;100.00
41898;BME280;27576;53.366;-1.498;2022-11-10T04:43:05;99668.47;;;10.06;100.00
41898;BME280;27576;53.366;-1.498;2022-11-10T04:45:32;99664.16;;;10.07;100.00
41898;BME280;27576;53.366;-1.498;2022-11-10T04:47:57;99693.53;;;10.23;100.00
41898;BME280;27576;53.366;-1.498;2022-11-10T04:50:23;99690.06;;;10.21;100.00
41898;BME280;27576;53.366;-1.498;2022-11-10T04:52:48;99713.44;;;10.33;100.00
41898;BME280;27576;53.366;-1.498;2022-11-10T04:55:13;99702.22;;;10.32;100.00
41898;BME280;27576;53.366;-1.498;2022-11-10T04:57:39;99706.56;;;10.40;100.00
41898;BME280;27576;53.366;-1.498;2022-11-10T05:00:05;99697.03;;;10.26;100.00
41898;BME280;27576;53.366;-1.498;2022-11-10T05:02:31;99728.16;;;10.39;100.00
41898;BME280;27576;53.366;-1.498;2022-11-10T05:04:57;99692.69;;;10.22;100.00
41898;BME280;27576;53.366;-1.498;2022-11-10T05:07:22;99729.88;;;10.41;100.00
41898;BME280;27576;53.366;-1.498;2022-11-10T05:09:48;99692.66;;;10.19;100.00
41898;BME280;27576;53.366;-1.498;2022-11-10T05:12:13;99739.38;;;10.41;100.00
41898;BME280;27576;53.366;-1.498;2022-11-10T05:14:38;99722.94;;;10.31;100.00
41898;BME280;27576;53.366;-1.498;2022-11-10T05:17:04;99735.03;;;10.41;100.00
41898;BME280;27576;53.366;-1.498;2022-11-10T05:19:29;99705.69;;;10.27;100.00
41898;BME280;27576;53.366;-1.498;2022-11-10T05:21:54;99717.78;;;10.36;100.00
41898;BME280;27576;53.366;-1.498;2022-11-10T05:24:20;99725.56;;;10.42;100.00
41898;BME280;27576;53.366;-1.498;2022-11-10T05:26:45;99718.66;;;10.38;100.00
41898;BME280;27576;53.366;-1.498;2022-11-10T05:29:10;99755.81;;;10.60;100.00
41898;BME280;27576;53.366;-1.498;2022-11-10T05:31:36;99726.47;;;10.50;100.00
41898;BME280;27576;53.366;-1.498;2022-11-10T05:34:01;99727.31;;;10.50;100.00
41898;BME280;27576;53.366;-1.498;2022-11-10T05:36:27;99736.81;;;10.54;100.00
41898;BME280;27576;53.366;-1.498;2022-11-10T05:38:52;99733.34;;;10.51;100.00
41898;BME280;27576;53.366;-1.498;2022-11-10T05:41:17;99732.47;;;10.49;100.00
41898;BME280;27576;53.366;-1.498;2022-11-10T05:43:43;99739.38;;;10.53;100.00
41898;BME280;27576;53.366;-1.498;2022-11-10T05:46:09;99732.50;;;10.46;100.00
41898;BME280;27576;53.366;-1.498;2022-11-10T05:48:34;99729.88;;;10.40;100.00
41898;BME280;27576;53.366;-1.498;2022-11-10T05:51:00;99712.59;;;10.32;100.00
41898;BME280;27576;53.366;-1.498;2022-11-10T05:53:25;99736.78;;;10.39;100.00
41898;BME280;27576;53.366;-1.498;2022-11-10T05:55:50;99727.28;;;10.30;100.00
41898;BME280;27576;53.366;-1.498;2022-11-10T05:58:16;99702.13;;;10.08;100.00
41898;BME280;27576;53.366;-1.498;2022-11-10T06:00:42;99752.31;;;10.41;100.00
41898;BME280;27576;53.366;-1.498;2022-11-10T06:03:15;99720.38;;;10.40;100.00
41898;BME280;27576;53.366;-1.498;2022-11-10T06:05:41;99726.41;;;10.31;100.00
41898;BME280;27576;53.366;-1.498;2022-11-10T06:08:07;99722.03;;;10.24;100.00
41898;BME280;27576;53.366;-1.498;2022-11-10T06:10:34;99709.94;;;10.22;100.00
41898;BME280;27576;53.366;-1.498;2022-11-10T06:13:00;99689.16;;;10.05;100.00
41898;BME280;27576;53.366;-1.498;2022-11-10T06:15:25;99743.66;;;10.31;100.00
41898;BME280;27576;53.366;-1.498;2022-11-10T06:17:51;99722.94;;;10.28;100.00
41898;BME280;27576;53.366;-1.498;2022-11-10T06:20:17;99751.47;;;10.45;100.00
41898;BME280;27576;53.366;-1.498;2022-11-10T06:22:44;99750.59;;;10.49;100.00
41898;BME280;27576;53.366;-1.498;2022-11-10T06:25:22;99728.16;;;10.40;100.00
41898;BME280;27576;53.366;-1.498;2022-11-10T06:27:48;99768.78;;;10.58;100.00
41898;BME280;27576;53.366;-1.498;2022-11-10T06:30:13;99747.19;;;10.68;100.00
41898;BME280;27576;53.366;-1.498;2022-11-10T06:32:41;99762.78;;;10.73;100.00
41898;BME280;27576;53.366;-1.498;2022-11-10T06:35:08;99763.63;;;10.76;100.00
41898;BME280;27576;53.366;-1.498;2022-11-10T06:37:33;99740.28;;;10.64;100.00
41898;BME280;27576;53.366;-1.498;2022-11-10T06:39:58;99726.47;;;10.62;100.00
41898;BME280;27576;53.366;-1.498;2022-11-10T06:42:24;99767.09;;;10.86;100.00
41898;BME280;27576;53.366;-1.498;2022-11-10T06:44:49;99776.59;;;10.84;100.00
41898;BME280;27576;53.366;-1.498;2022-11-10T06:47:15;99784.38;;;10.82;100.00
41898;BME280;27576;53.366;-1.498;2022-11-10T06:49:40;99790.41;;;10.80;100.00
41898;BME280;27576;53.366;-1.498;2022-11-10T06:52:05;99780.06;;;10.74;100.00
41898;BME280;27576;53.366;-1.498;2022-11-10T06:54:32;99794.75;;;10.73;100.00
41898;BME280;27576;53.366;-1.498;2022-11-10T06:56:57;99773.97;;;10.64;100.00
41898;BME280;27576;53.366;-1.498;2022-11-10T06:59:23;99767.03;;;10.57;100.00
41898;BME280;27576;53.366;-1.498;2022-11-10T07:01:48;99767.03;;;10.54;100.00
41898;BME280;27576;53.366;-1.498;2022-11-10T07:04:14;99776.53;;;10.56;100.00
41898;BME280;27576;53.366;-1.498;2022-11-10T07:06:40;99768.78;;;10.63;100.00
41898;BME280;27576;53.366;-1.498;2022-11-10T07:09:06;99764.44;;;10.57;100.00
41898;BME280;27576;53.366;-1.498;2022-11-10T07:11:31;99753.19;;;10.49;100.00
41898;BME280;27576;53.366;-1.498;2022-11-10T07:13:56;99777.41;;;10.57;100.00
41898;BME280;27576;53.366;-1.498;2022-11-10T07:16:22;99785.16;;;10.52;100.00
41898;BME280;27576;53.366;-1.498;2022-11-10T07:18:47;99798.16;;;10.63;100.00
41898;BME280;27576;53.366;-1.498;2022-11-10T07:21:13;99807.66;;;10.66;100.00
41898;BME280;27576;53.366;-1.498;2022-11-10T07:23:38;99790.34;;;10.49;100.00
41898;BME280;27576;53.366;-1.498;2022-11-10T07:26:04;99809.38;;;10.62;100.00
41898;BME280;27576;53.366;-1.498;2022-11-10T07:28:29;99779.97;;;10.43;100.00
41898;BME280;27576;53.366;-1.498;2022-11-10T07:30:55;99810.22;;;10.60;100.00
41898;BME280;27576;53.366;-1.498;2022-11-10T07:33:20;99813.69;;;10.60;100.00
41898;BME280;27576;53.366;-1.498;2022-11-10T07:35:51;99774.75;;;10.37;100.00
41898;BME280;27576;53.366;-1.498;2022-11-10T07:38:18;99779.09;;;10.40;100.00
41898;BME280;27576;53.366;-1.498;2022-11-10T07:40:43;99807.63;;;10.52;100.00
41898;BME280;27576;53.366;-1.498;2022-11-10T07:43:09;99793.78;;;10.47;100.00
41898;BME280;27576;53.366;-1.498;2022-11-10T07:45:34;99802.41;;;10.49;100.00
41898;BME280;27576;53.366;-1.498;2022-11-10T07:48:01;99826.63;;;10.60;100.00
41898;BME280;27576;53.366;-1.498;2022-11-10T07:50:27;99836.16;;;10.58;100.00
41898;BME280;27576;53.366;-1.498;2022-11-10T07:52:52;99830.97;;;10.60;100.00
41898;BME280;27576;53.366;-1.498;2022-11-10T07:55:18;99842.19;;;10.59;100.00
41898;BME280;27576;53.366;-1.498;2022-11-10T07:57:43;99834.41;;;10.60;100.00
41898;BME280;27576;53.366;-1.498;2022-11-10T08:00:09;99853.47;;;10.76;100.00
41898;BME280;27576;53.366;-1.498;2022-11-10T08:02:36;99818.03;;;10.63;100.00
41898;BME280;27576;53.366;-1.498;2022-11-10T08:05:02;99837.91;;;10.74;100.00
41898;BME280;27576;53.366;-1.498;2022-11-10T08:07:28;99828.44;;;10.81;100.00
41898;BME280;27576;53.366;-1.498;2022-11-10T08:09:55;99824.13;;;10.88;100.00
41898;BME280;27576;53.366;-1.498;2022-11-10T08:12:20;99831.91;;;10.95;100.00
41898;BME280;27576;53.366;-1.498;2022-11-10T08:14:45;99825.03;;;10.93;100.00
41898;BME280;27576;53.366;-1.498;2022-11-10T08:17:11;99843.19;;;11.06;100.00
41898;BME280;27576;53.366;-1.498;2022-11-10T08:19:36;99825.03;;;11.00;100.00
41898;BME280;27576;53.366;-1.498;2022-11-10T08:22:01;99831.06;;;11.04;100.00
41898;BME280;27576;53.366;-1.498;2022-11-10T08:24:27;99844.91;;;11.18;100.00
41898;BME280;27576;53.366;-1.498;2022-11-10T08:26:52;99855.28;;;11.23;100.00
41898;BME280;27576;53.366;-1.498;2022-11-10T08:29:17;99843.19;;;11.13;100.00
41898;BME280;27576;53.366;-1.498;2022-11-10T08:31:43;99870.88;;;11.30;100.00
41898;BME280;27576;53.366;-1.498;2022-11-10T08:34:08;99854.44;;;11.30;100.00
41898;BME280;27576;53.366;-1.498;2022-11-10T08:36:33;99870.03;;;11.45;100.00
41898;BME280;27576;53.366;-1.498;2022-11-10T08:38:59;99835.44;;;11.29;100.00
41898;BME280;27576;53.366;-1.498;2022-11-10T08:41:24;99839.78;;;11.40;100.00
41898;BME280;27576;53.366;-1.498;2022-11-10T08:43:50;99830.22;;;11.39;100.00
41898;BME280;27576;53.366;-1.498;2022-11-10T08:46:15;99846.69;;;11.51;100.00
41898;BME280;27576;53.366;-1.498;2022-11-10T08:48:40;99859.66;;;11.56;100.00
41898;BME280;27576;53.366;-1.498;2022-11-10T08:51:06;99878.69;;;11.69;100.00
41898;BME280;27576;53.366;-1.498;2022-11-10T08:53:31;99865.72;;;11.67;100.00
41898;BME280;27576;53.366;-1.498;2022-11-10T08:55:57;99844.06;;;11.58;100.00
41898;BME280;27576;53.366;-1.498;2022-11-10T08:58:23;99839.75;;;11.55;100.00
41898;BME280;27576;53.366;-1.498;2022-11-10T09:00:49;99844.94;;;11.67;100.00
41898;BME280;27576;53.366;-1.498;2022-11-10T09:03:17;99882.19;;;11.83;100.00
41898;BME280;27576;53.366;-1.498;2022-11-10T09:05:44;99891.69;;;11.86;100.00
41898;BME280;27576;53.366;-1.498;2022-11-10T09:08:10;99889.94;;;11.86;100.00
41898;BME280;27576;53.366;-1.498;2022-11-10T09:10:38;99891.69;;;11.89;100.00
41898;BME280;27576;53.366;-1.498;2022-11-10T09:13:04;99896.88;;;11.92;100.00
41898;BME280;27576;53.366;-1.498;2022-11-10T09:15:31;99908.97;;;11.93;100.00
41898;BME280;27576;53.366;-1.498;2022-11-10T09:17:58;99896.00;;;11.85;100.00
41898;BME280;27576;53.366;-1.498;2022-11-10T09:20:25;99897.75;;;11.92;100.00
41898;BME280;27576;53.366;-1.498;2022-11-10T09:22:50;99884.78;;;11.91;100.00
41898;BME280;27576;53.366;-1.498;2022-11-10T09:25:16;99876.09;;;11.86;100.00
41898;BME280;27576;53.366;-1.498;2022-11-10T09:27:41;99872.66;;;11.85;100.00
41898;BME280;27576;53.366;-1.498;2022-11-10T09:30:07;99872.63;;;11.90;100.00
41898;BME280;27576;53.366;-1.498;2022-11-10T09:32:33;99889.06;;;11.99;100.00
41898;BME280;27576;53.366;-1.498;2022-11-10T09:34:59;99887.34;;;12.00;100.00
41898;BME280;27576;53.366;-1.498;2022-11-10T09:37:25;99902.06;;;11.96;100.00
41898;BME280;27576;53.366;-1.498;2022-11-10T09:39:50;99898.59;;;11.96;100.00
41898;BME280;27576;53.366;-1.498;2022-11-10T09:42:37;99926.28;;;12.00;100.00
41898;BME280;27576;53.366;-1.498;2022-11-10T09:45:17;99903.78;;;11.93;100.00
41898;BME280;27576;53.366;-1.498;2022-11-10T09:50:28;99905.53;;;11.88;100.00
41898;BME280;27576;53.366;-1.498;2022-11-10T09:52:56;99908.13;;;11.91;100.00
41898;BME280;27576;53.366;-1.498;2022-11-10T09:55:55;99923.69;;;12.04;100.00
41898;BME280;27576;53.366;-1.498;2022-11-10T09:58:25;99902.06;;;12.02;100.00
41898;BME280;27576;53.366;-1.498;2022-11-10T10:01:06;99906.38;;;12.00;100.00
41898;BME280;27576;53.366;-1.498;2022-11-10T10:03:45;99908.97;;;11.97;100.00
41898;BME280;27576;53.366;-1.498;2022-11-10T10:06:12;99934.06;;;12.06;100.00
41898;BME280;27576;53.366;-1.498;2022-11-10T10:11:39;99941.84;;;12.09;100.00
41898;BME280;27576;53.366;-1.498;2022-11-10T10:17:12;99964.38;;;12.16;100.00
41898;BME280;27576;53.366;-1.498;2022-11-10T10:19:57;99967.84;;;12.20;100.00
41898;BME280;27576;53.366;-1.498;2022-11-10T10:22:56;99965.25;;;12.23;100.00
41898;BME280;27576;53.366;-1.498;2022-11-10T10:25:24;99961.78;;;12.16;100.00
41898;BME280;27576;53.366;-1.498;2022-11-10T10:28:04;99967.81;;;12.27;100.00
41898;BME280;27576;53.366;-1.498;2022-11-10T10:30:30;99966.97;;;12.30;100.00
41898;BME280;27576;53.366;-1.498;2022-11-10T10:33:01;99964.34;;;12.33;100.00
41898;BME280;27576;53.366;-1.498;2022-11-10T10:35:33;99979.06;;;12.36;100.00
41898;BME280;27576;53.366;-1.498;2022-11-10T10:37:59;99960.91;;;12.31;100.00
41898;BME280;27576;53.366;-1.498;2022-11-10T10:40:26;99954.00;;;12.22;100.00
41898;BME280;27576;53.366;-1.498;2022-11-10T10:42:52;99964.31;;;12.38;100.00
41898;BME280;27576;53.366;-1.498;2022-11-10T10:45:22;99978.16;;;12.49;100.00
41898;BME280;27576;53.366;-1.498;2022-11-10T10:47:51;99960.84;;;12.48;100.00
41898;BME280;27576;53.366;-1.498;2022-11-10T10:50:42;99955.66;;;12.45;100.00
41898;BME280;27576;53.366;-1.498;2022-11-10T10:53:19;99973.84;;;12.59;100.00
41898;BME280;27576;53.366;-1.498;2022-11-10T11:03:46;99956.47;;;12.77;100.00
41898;BME280;27576;53.366;-1.498;2022-11-10T11:08:55;99946.00;;;12.90;100.00
41898;BME280;27576;53.366;-1.498;2022-11-10T11:11:30;99934.75;;;12.86;100.00
41898;BME280;27576;53.366;-1.498;2022-11-10T11:16:52;99952.88;;;13.06;100.00
41898;BME280;27576;53.366;-1.498;2022-11-10T11:19:20;99936.38;;;13.10;100.00
41898;BME280;27576;53.366;-1.498;2022-11-10T11:24:31;99925.09;;;13.10;100.00
41898;BME280;27576;53.366;-1.498;2022-11-10T11:32:51;99927.66;;;13.25;100.00
41898;BME280;27576;53.366;-1.498;2022-11-10T11:35:48;99936.25;;;13.41;100.00
41898;BME280;27576;53.366;-1.498;2022-11-10T11:44:15;99959.56;;;13.56;100.00
41898;BME280;27576;53.366;-1.498;2022-11-10T11:57:19;99991.56;;;13.70;100.00
41898;BME280;27576;53.366;-1.498;2022-11-10T12:00:02;100000.19;;;13.82;100.00
41898;BME280;27576;53.366;-1.498;2022-11-10T12:02:45;99981.06;;;13.83;100.00
41898;BME280;27576;53.366;-1.498;2022-11-10T12:07:59;99975.88;;;13.81;100.00
41898;BME280;27576;53.366;-1.498;2022-11-10T12:10:33;99994.03;;;13.90;100.00
41898;BME280;27576;53.366;-1.498;2022-11-10T12:13:29;99982.75;;;13.90;100.00
41898;BME280;27576;53.366;-1.498;2022-11-10T12:18:45;99963.63;;;13.91;100.00
41898;BME280;27576;53.366;-1.498;2022-11-10T12:23:52;99951.13;;;14.30;100.00
41898;BME280;27576;53.366;-1.498;2022-11-10T12:26:24;99959.66;;;14.50;100.00
41898;BME280;27576;53.366;-1.498;2022-11-10T12:29:02;99958.03;;;14.37;100.00
41898;BME280;27576;53.366;-1.498;2022-11-10T12:31:31;99943.28;;;14.33;100.00
41898;BME280;27576;53.366;-1.498;2022-11-10T12:34:03;99963.25;;;14.37;100.00
41898;BME280;27576;53.366;-1.498;2022-11-10T12:36:31;99970.16;;;14.38;100.00
41898;BME280;27576;53.366;-1.498;2022-11-10T12:39:14;99984.09;;;14.37;100.00
41898;BME280;27576;53.366;-1.498;2022-11-10T12:41:45;99981.41;;;14.44;100.00
41898;BME280;27576;53.366;-1.498;2022-11-10T12:47:05;99962.34;;;15.16;100.00
41898;BME280;27576;53.366;-1.498;2022-11-10T12:52:20;99955.06;;;15.40;95.75
41898;BME280;27576;53.366;-1.498;2022-11-10T12:54:47;99966.72;;;15.16;97.43
41898;BME280;27576;53.366;-1.498;2022-11-10T12:57:16;99998.03;;;15.16;99.01
41898;BME280;27576;53.366;-1.498;2022-11-10T13:02:44;99986.47;;;14.64;100.00
41898;BME280;27576;53.366;-1.498;2022-11-10T13:07:40;99995.44;;;14.31;100.00
41898;BME280;27576;53.366;-1.498;2022-11-10T13:10:24;99989.31;;;14.38;100.00
41898;BME280;27576;53.366;-1.498;2022-11-10T13:15:50;100024.16;;;14.27;100.00
41898;BME280;27576;53.366;-1.498;2022-11-10T13:20:54;100019.06;;;14.11;100.00
41898;BME280;27576;53.366;-1.498;2022-11-10T13:26:00;100009.63;;;13.99;100.00
41898;BME280;27576;53.366;-1.498;2022-11-10T13:34:25;100015.75;;;13.92;100.00
41898;BME280;27576;53.366;-1.498;2022-11-10T13:36:51;100007.94;;;13.86;100.00
41898;BME280;27576;53.366;-1.498;2022-11-10T13:44:36;100000.94;;;13.94;100.00
41898;BME280;27576;53.366;-1.498;2022-11-10T13:52:17;99989.78;;;13.80;100.00
41898;BME280;27576;53.366;-1.498;2022-11-10T13:58:15;100004.56;;;13.73;100.00
41898;BME280;27576;53.366;-1.498;2022-11-10T14:00:47;100041.81;;;13.88;100.00
41898;BME280;27576;53.366;-1.498;2022-11-10T14:06:16;100019.41;;;13.59;100.00
41898;BME280;27576;53.366;-1.498;2022-11-10T14:09:05;100016.84;;;13.53;100.00
41898;BME280;27576;53.366;-1.498;2022-11-10T14:11:40;100052.34;;;13.69;100.00
41898;BME280;27576;53.366;-1.498;2022-11-10T14:14:23;100045.41;;;13.68;100.00
41898;BME280;27576;53.366;-1.498;2022-11-10T14:16:49;100035.88;;;13.63;100.00
41898;BME280;27576;53.366;-1.498;2022-11-10T14:19:39;100039.34;;;13.68;100.00
41898;BME280;27576;53.366;-1.498;2022-11-10T14:25:23;100055.84;;;13.64;100.00
41898;BME280;27576;53.366;-1.498;2022-11-10T14:27:49;100043.75;;;13.57;100.00
41898;BME280;27576;53.366;-1.498;2022-11-10T14:33:02;100057.59;;;13.59;100.00